sensor_id;sensor_type;location;lat;lon;timestamp;temperature;humidity
11067;DHT22;29763;50.904;5.530;2022-08-30T00:00:38;17.20;99.90
11067;DHT22;29763;50.904;5.530;2022-08-30T00:03:23;17.20;99.90
11067;DHT22;29763;50.904;5.530;2022-08-30T00:05:49;17.20;99.90
11067;DHT22;29763;50.904;5.530;2022-08-30T00:08:15;17.20;99.90
11067;DHT22;29763;50.904;5.530;2022-08-30T00:10:42;17.20;99.90
11067;DHT22;29763;50.904;5.530;2022-08-30T00:13:09;17.20;99.90
11067;DHT22;29763;50.904;5.530;2022-08-30T00:15:39;17.20;99.90
11067;DHT22;29763;50.904;5.530;2022-08-30T00:18:06;17.30;99.90
11067;DHT22;29763;50.904;5.530;2022-08-30T00:20:36;17.30;99.90
11067;DHT22;29763;50.904;5.530;2022-08-30T00:23:04;17.30;99.90
11067;DHT22;29763;50.904;5.530;2022-08-30T00:25:31;17.30;99.90
11067;DHT22;29763;50.904;5.530;2022-08-30T00:27:57;17.30;99.90
11067;DHT22;29763;50.904;5.530;2022-08-30T00:30:23;17.30;99.90
11067;DHT22;29763;50.904;5.530;2022-08-30T00:32:49;17.20;99.90
11067;DHT22;29763;50.904;5.530;2022-08-30T00:35:17;17.20;99.90
11067;DHT22;29763;50.904;5.530;2022-08-30T00:37:45;17.20;99.90
11067;DHT22;29763;50.904;5.530;2022-08-30T00:40:13;17.20;99.90
11067;DHT22;29763;50.904;5.530;2022-08-30T00:42:46;17.10;99.90
11067;DHT22;29763;50.904;5.530;2022-08-30T00:45:25;17.10;99.90
11067;DHT22;29763;50.904;5.530;2022-08-30T00:47:51;17.00;99.90
11067;DHT22;29763;50.904;5.530;2022-08-30T00:50:21;17.00;99.90
11067;DHT22;29763;50.904;5.530;2022-08-30T00:52:50;17.00;99.90
11067;DHT22;29763;50.904;5.530;2022-08-30T00:55:18;17.00;99.90
11067;DHT22;29763;50.904;5.530;2022-08-30T00:57:45;17.00;99.90
11067;DHT22;29763;50.904;5.530;2022-08-30T01:00:13;16.90;99.90
11067;DHT22;29763;50.904;5.530;2022-08-30T01:02:39;16.90;99.90
11067;DHT22;29763;50.904;5.530;2022-08-30T01:05:07;16.80;99.90
11067;DHT22;29763;50.904;5.530;2022-08-30T01:07:35;16.80;99.90
11067;DHT22;29763;50.904;5.530;2022-08-30T01:10:09;16.70;99.90
11067;DHT22;29763;50.904;5.530;2022-08-30T01:12:37;16.70;99.90
11067;DHT22;29763;50.904;5.530;2022-08-30T01:15:05;16.60;99.90
11067;DHT22;29763;50.904;5.530;2022-08-30T01:17:32;16.60;99.90
11067;DHT22;29763;50.904;5.530;2022-08-30T01:20:11;16.50;99.90
11067;DHT22;29763;50.904;5.530;2022-08-30T01:25:28;16.40;99.90
11067;DHT22;29763;50.904;5.530;2022-08-30T01:28:03;16.30;99.90
11067;DHT22;29763;50.904;5.530;2022-08-30T01:30:30;16.30;99.90
11067;DHT22;29763;50.904;5.530;2022-08-30T01:32:58;16.20;99.90
11067;DHT22;29763;50.904;5.530;2022-08-30T01:35:25;16.20;99.90
11067;DHT22;29763;50.904;5.530;2022-08-30T01:37:52;16.10;99.90
11067;DHT22;29763;50.904;5.530;2022-08-30T01:40:19;16.10;99.90
11067;DHT22;29763;50.904;5.530;2022-08-30T01:42:46;16.10;99.90
11067;DHT22;29763;50.904;5.530;2022-08-30T01:45:12;16.00;99.90
11067;DHT22;29763;50.904;5.530;2022-08-30T01:47:40;16.00;99.90
11067;DHT22;29763;50.904;5.530;2022-08-30T01:50:13;16.00;99.90
11067;DHT22;29763;50.904;5.530;2022-08-30T01:52:39;15.90;99.90
11067;DHT22;29763;50.904;5.530;2022-08-30T01:55:06;15.90;99.90
11067;DHT22;29763;50.904;5.530;2022-08-30T01:57:33;16.00;99.90
11067;DHT22;29763;50.904;5.530;2022-08-30T01:59:58;15.90;99.90
11067;DHT22;29763;50.904;5.530;2022-08-30T02:02:27;15.90;99.90
11067;DHT22;29763;50.904;5.530;2022-08-30T02:04:54;15.90;99.90
11067;DHT22;29763;50.904;5.530;2022-08-30T02:07:21;15.80;99.90
11067;DHT22;29763;50.904;5.530;2022-08-30T02:09:48;15.70;99.90
11067;DHT22;29763;50.904;5.530;2022-08-30T02:12:14;15.70;99.90
11067;DHT22;29763;50.904;5.530;2022-08-30T02:14:40;15.60;99.90
11067;DHT22;29763;50.904;5.530;2022-08-30T02:17:10;15.60;99.90
11067;DHT22;29763;50.904;5.530;2022-08-30T02:19:36;15.50;99.90
11067;DHT22;29763;50.904;5.530;2022-08-30T02:22:03;15.40;99.90
11067;DHT22;29763;50.904;5.530;2022-08-30T02:24:29;15.40;99.90
11067;DHT22;29763;50.904;5.530;2022-08-30T02:26:55;15.30;99.90
11067;DHT22;29763;50.904;5.530;2022-08-30T02:29:22;15.30;99.90
11067;DHT22;29763;50.904;5.530;2022-08-30T02:31:48;15.30;99.90
11067;DHT22;29763;50.904;5.530;2022-08-30T02:34:14;15.20;99.90
11067;DHT22;29763;50.904;5.530;2022-08-30T02:36:42;15.20;99.90
11067;DHT22;29763;50.904;5.530;2022-08-30T02:39:15;15.20;99.90
11067;DHT22;29763;50.904;5.530;2022-08-30T02:41:41;15.10;99.90
11067;DHT22;29763;50.904;5.530;2022-08-30T02:44:08;15.00;99.90
11067;DHT22;29763;50.904;5.530;2022-08-30T02:46:38;15.00;99.90
11067;DHT22;29763;50.904;5.530;2022-08-30T02:49:06;15.00;99.90
11067;DHT22;29763;50.904;5.530;2022-08-30T02:51:39;15.00;99.90
11067;DHT22;29763;50.904;5.530;2022-08-30T02:54:05;15.00;99.90
11067;DHT22;29763;50.904;5.530;2022-08-30T02:56:32;15.00;99.90
11067;DHT22;29763;50.904;5.530;2022-08-30T02:58:58;15.00;99.90
11067;DHT22;29763;50.904;5.530;2022-08-30T03:01:25;15.00;99.90
11067;DHT22;29763;50.904;5.530;2022-08-30T03:03:57;15.10;99.90
11067;DHT22;29763;50.904;5.530;2022-08-30T03:06:23;15.00;99.90
11067;DHT22;29763;50.904;5.530;2022-08-30T03:08:48;15.00;99.90
11067;DHT22;29763;50.904;5.530;2022-08-30T03:11:15;15.00;99.90
11067;DHT22;29763;50.904;5.530;2022-08-30T03:13:42;15.00;99.90
11067;DHT22;29763;50.904;5.530;2022-08-30T03:16:08;15.00;99.90
11067;DHT22;29763;50.904;5.530;2022-08-30T03:18:34;15.00;99.90
11067;DHT22;29763;50.904;5.530;2022-08-30T03:21:01;15.00;99.90
11067;DHT22;29763;50.904;5.530;2022-08-30T03:23:28;14.90;99.90
11067;DHT22;29763;50.904;5.530;2022-08-30T03:26:01;14.90;99.90
11067;DHT22;29763;50.904;5.530;2022-08-30T03:28:27;15.00;99.90
11067;DHT22;29763;50.904;5.530;2022-08-30T03:30:53;15.00;99.90
11067;DHT22;29763;50.904;5.530;2022-08-30T03:33:20;15.00;99.90
11067;DHT22;29763;50.904;5.530;2022-08-30T03:35:49;15.10;99.90
11067;DHT22;29763;50.904;5.530;2022-08-30T03:38:15;15.20;99.90
11067;DHT22;29763;50.904;5.530;2022-08-30T03:40:41;15.30;99.90
11067;DHT22;29763;50.904;5.530;2022-08-30T03:43:10;15.40;99.90
11067;DHT22;29763;50.904;5.530;2022-08-30T03:45:36;15.40;99.90
11067;DHT22;29763;50.904;5.530;2022-08-30T03:48:02;15.50;99.90
11067;DHT22;29763;50.904;5.530;2022-08-30T03:50:28;15.60;99.90
11067;DHT22;29763;50.904;5.530;2022-08-30T03:52:55;15.70;99.90
11067;DHT22;29763;50.904;5.530;2022-08-30T03:55:23;15.70;99.90
11067;DHT22;29763;50.904;5.530;2022-08-30T03:57:52;15.80;99.90
11067;DHT22;29763;50.904;5.530;2022-08-30T04:00:19;15.80;99.90
11067;DHT22;29763;50.904;5.530;2022-08-30T04:02:46;15.90;99.90
11067;DHT22;29763;50.904;5.530;2022-08-30T04:05:13;15.90;99.90
11067;DHT22;29763;50.904;5.530;2022-08-30T04:07:38;16.00;99.90
11067;DHT22;29763;50.904;5.530;2022-08-30T04:10:06;16.00;99.90
11067;DHT22;29763;50.904;5.530;2022-08-30T04:12:39;16.10;99.90
11067;DHT22;29763;50.904;5.530;2022-08-30T04:15:05;16.10;99.90
11067;DHT22;29763;50.904;5.530;2022-08-30T04:17:34;16.20;99.90
11067;DHT22;29763;50.904;5.530;2022-08-30T04:20:01;16.30;99.90
11067;DHT22;29763;50.904;5.530;2022-08-30T04:22:29;16.30;99.90
11067;DHT22;29763;50.904;5.530;2022-08-30T04:24:56;16.40;99.90
11067;DHT22;29763;50.904;5.530;2022-08-30T04:27:22;16.40;99.90
11067;DHT22;29763;50.904;5.530;2022-08-30T04:29:49;16.50;99.90
11067;DHT22;29763;50.904;5.530;2022-08-30T04:32:16;16.60;99.90
11067;DHT22;29763;50.904;5.530;2022-08-30T04:34:42;16.50;99.90
11067;DHT22;29763;50.904;5.530;2022-08-30T04:37:08;16.60;99.90
11067;DHT22;29763;50.904;5.530;2022-08-30T04:39:34;16.60;99.90
11067;DHT22;29763;50.904;5.530;2022-08-30T04:42:00;16.60;99.90
11067;DHT22;29763;50.904;5.530;2022-08-30T04:44:27;16.50;99.90
11067;DHT22;29763;50.904;5.530;2022-08-30T04:46:53;16.70;99.90
11067;DHT22;29763;50.904;5.530;2022-08-30T04:49:19;16.60;99.90
11067;DHT22;29763;50.904;5.530;2022-08-30T04:51:45;16.70;99.90
11067;DHT22;29763;50.904;5.530;2022-08-30T04:54:12;16.70;99.90
11067;DHT22;29763;50.904;5.530;2022-08-30T04:56:39;16.70;99.90
11067;DHT22;29763;50.904;5.530;2022-08-30T04:59:05;16.80;99.90
11067;DHT22;29763;50.904;5.530;2022-08-30T05:01:32;16.70;99.90
11067;DHT22;29763;50.904;5.530;2022-08-30T05:03:58;16.70;99.90
11067;DHT22;29763;50.904;5.530;2022-08-30T05:06:27;16.70;99.90
11067;DHT22;29763;50.904;5.530;2022-08-30T05:08:55;16.60;99.90
11067;DHT22;29763;50.904;5.530;2022-08-30T05:11:22;16.60;99.90
11067;DHT22;29763;50.904;5.530;2022-08-30T05:13:48;16.60;99.90
11067;DHT22;29763;50.904;5.530;2022-08-30T05:16:14;16.60;99.90
11067;DHT22;29763;50.904;5.530;2022-08-30T05:18:43;16.50;99.90
11067;DHT22;29763;50.904;5.530;2022-08-30T05:21:16;16.50;99.90
11067;DHT22;29763;50.904;5.530;2022-08-30T05:23:43;16.60;99.90
11067;DHT22;29763;50.904;5.530;2022-08-30T05:26:14;16.60;99.90
11067;DHT22;29763;50.904;5.530;2022-08-30T05:28:41;16.70;99.90
11067;DHT22;29763;50.904;5.530;2022-08-30T05:34:03;16.90;99.90
11067;DHT22;29763;50.904;5.530;2022-08-30T05:36:34;17.00;99.90
11067;DHT22;29763;50.904;5.530;2022-08-30T05:39:01;17.10;99.90
11067;DHT22;29763;50.904;5.530;2022-08-30T05:41:28;17.20;99.90
11067;DHT22;29763;50.904;5.530;2022-08-30T05:43:57;17.30;99.90
11067;DHT22;29763;50.904;5.530;2022-08-30T05:46:24;17.30;99.90
11067;DHT22;29763;50.904;5.530;2022-08-30T05:48:52;17.50;99.90
11067;DHT22;29763;50.904;5.530;2022-08-30T05:51:20;17.60;99.90
11067;DHT22;29763;50.904;5.530;2022-08-30T05:53:47;17.60;99.90
11067;DHT22;29763;50.904;5.530;2022-08-30T05:56:21;17.70;99.90
11067;DHT22;29763;50.904;5.530;2022-08-30T05:58:47;17.80;99.90
11067;DHT22;29763;50.904;5.530;2022-08-30T06:03:53;17.70;99.90
11067;DHT22;29763;50.904;5.530;2022-08-30T06:06:20;17.70;99.90
11067;DHT22;29763;50.904;5.530;2022-08-30T06:08:46;17.60;99.90
11067;DHT22;29763;50.904;5.530;2022-08-30T06:11:13;17.60;99.90
11067;DHT22;29763;50.904;5.530;2022-08-30T06:13:40;17.60;99.90
11067;DHT22;29763;50.904;5.530;2022-08-30T06:16:07;17.60;99.90
11067;DHT22;29763;50.904;5.530;2022-08-30T06:18:32;17.60;99.90
11067;DHT22;29763;50.904;5.530;2022-08-30T06:20:59;17.60;99.90
11067;DHT22;29763;50.904;5.530;2022-08-30T06:23:25;17.70;99.90
11067;DHT22;29763;50.904;5.530;2022-08-30T06:25:51;17.70;99.90
11067;DHT22;29763;50.904;5.530;2022-08-30T06:28:16;17.80;99.90
11067;DHT22;29763;50.904;5.530;2022-08-30T06:30:48;17.90;99.90
11067;DHT22;29763;50.904;5.530;2022-08-30T06:33:18;18.00;99.90
11067;DHT22;29763;50.904;5.530;2022-08-30T06:35:47;18.10;99.90
11067;DHT22;29763;50.904;5.530;2022-08-30T06:38:12;18.30;99.90
11067;DHT22;29763;50.904;5.530;2022-08-30T06:40:38;18.60;99.90
11067;DHT22;29763;50.904;5.530;2022-08-30T06:43:04;18.70;99.90
11067;DHT22;29763;50.904;5.530;2022-08-30T06:45:32;18.80;99.90
11067;DHT22;29763;50.904;5.530;2022-08-30T06:47:58;18.90;99.90
11067;DHT22;29763;50.904;5.530;2022-08-30T06:50:23;19.00;99.90
11067;DHT22;29763;50.904;5.530;2022-08-30T06:52:50;19.20;99.90
11067;DHT22;29763;50.904;5.530;2022-08-30T06:55:17;19.30;99.90
11067;DHT22;29763;50.904;5.530;2022-08-30T06:57:43;19.30;99.90
11067;DHT22;29763;50.904;5.530;2022-08-30T07:00:12;19.40;99.90
11067;DHT22;29763;50.904;5.530;2022-08-30T07:02:38;19.30;99.90
11067;DHT22;29763;50.904;5.530;2022-08-30T07:05:05;19.40;99.90
11067;DHT22;29763;50.904;5.530;2022-08-30T07:07:32;19.50;99.90
11067;DHT22;29763;50.904;5.530;2022-08-30T07:10:00;19.70;99.90
11067;DHT22;29763;50.904;5.530;2022-08-30T07:12:25;19.80;99.90
11067;DHT22;29763;50.904;5.530;2022-08-30T07:14:51;19.90;99.90
11067;DHT22;29763;50.904;5.530;2022-08-30T07:17:17;19.80;99.90
11067;DHT22;29763;50.904;5.530;2022-08-30T07:20:03;19.80;99.90
11067;DHT22;29763;50.904;5.530;2022-08-30T07:22:31;20.00;99.90
11067;DHT22;29763;50.904;5.530;2022-08-30T07:24:58;20.20;99.90
11067;DHT22;29763;50.904;5.530;2022-08-30T07:27:24;20.50;99.90
11067;DHT22;29763;50.904;5.530;2022-08-30T07:29:51;20.90;99.90
11067;DHT22;29763;50.904;5.530;2022-08-30T07:32:17;21.30;99.90
11067;DHT22;29763;50.904;5.530;2022-08-30T07:34:42;21.30;99.90
11067;DHT22;29763;50.904;5.530;2022-08-30T07:37:08;21.70;99.90
11067;DHT22;29763;50.904;5.530;2022-08-30T07:39:34;21.90;99.90
11067;DHT22;29763;50.904;5.530;2022-08-30T07:42:07;22.10;99.90
11067;DHT22;29763;50.904;5.530;2022-08-30T07:44:33;22.20;99.90
11067;DHT22;29763;50.904;5.530;2022-08-30T07:46:59;22.20;99.90
11067;DHT22;29763;50.904;5.530;2022-08-30T07:49:30;22.50;99.90
11067;DHT22;29763;50.904;5.530;2022-08-30T07:51:56;22.40;99.90
11067;DHT22;29763;50.904;5.530;2022-08-30T07:54:25;22.60;99.90
11067;DHT22;29763;50.904;5.530;2022-08-30T07:56:50;22.80;99.90
11067;DHT22;29763;50.904;5.530;2022-08-30T07:59:18;22.90;99.90
11067;DHT22;29763;50.904;5.530;2022-08-30T08:01:44;22.90;99.90
11067;DHT22;29763;50.904;5.530;2022-08-30T08:04:10;22.90;99.90
11067;DHT22;29763;50.904;5.530;2022-08-30T08:06:37;23.30;99.90
11067;DHT22;29763;50.904;5.530;2022-08-30T08:09:05;23.70;99.90
11067;DHT22;29763;50.904;5.530;2022-08-30T08:11:34;23.90;99.90
11067;DHT22;29763;50.904;5.530;2022-08-30T08:14:05;23.90;99.90
11067;DHT22;29763;50.904;5.530;2022-08-30T08:16:33;23.50;99.90
11067;DHT22;29763;50.904;5.530;2022-08-30T08:19:00;23.50;99.90
11067;DHT22;29763;50.904;5.530;2022-08-30T08:21:28;23.60;99.90
11067;DHT22;29763;50.904;5.530;2022-08-30T08:23:54;23.80;99.90
11067;DHT22;29763;50.904;5.530;2022-08-30T08:26:20;23.40;99.90
11067;DHT22;29763;50.904;5.530;2022-08-30T08:28:47;23.30;99.90
11067;DHT22;29763;50.904;5.530;2022-08-30T08:31:19;23.10;99.90
11067;DHT22;29763;50.904;5.530;2022-08-30T08:33:46;23.40;99.90
11067;DHT22;29763;50.904;5.530;2022-08-30T08:36:13;23.20;99.90
11067;DHT22;29763;50.904;5.530;2022-08-30T08:38:40;23.50;99.90
11067;DHT22;29763;50.904;5.530;2022-08-30T08:43:51;23.90;99.90
11067;DHT22;29763;50.904;5.530;2022-08-30T08:46:34;24.10;99.90
11067;DHT22;29763;50.904;5.530;2022-08-30T08:49:05;24.50;99.90
11067;DHT22;29763;50.904;5.530;2022-08-30T08:51:37;24.90;99.90
11067;DHT22;29763;50.904;5.530;2022-08-30T08:54:54;25.20;99.90
11067;DHT22;29763;50.904;5.530;2022-08-30T08:57:24;25.60;99.90
11067;DHT22;29763;50.904;5.530;2022-08-30T08:59:51;25.80;99.90
11067;DHT22;29763;50.904;5.530;2022-08-30T09:02:25;25.80;99.90
11067;DHT22;29763;50.904;5.530;2022-08-30T09:05:01;25.40;99.90
11067;DHT22;29763;50.904;5.530;2022-08-30T09:07:39;25.40;99.90
11067;DHT22;29763;50.904;5.530;2022-08-30T09:10:07;25.40;99.90
11067;DHT22;29763;50.904;5.530;2022-08-30T09:12:34;25.80;99.90
11067;DHT22;29763;50.904;5.530;2022-08-30T09:15:26;25.90;99.90
11067;DHT22;29763;50.904;5.530;2022-08-30T09:18:03;26.10;99.90
11067;DHT22;29763;50.904;5.530;2022-08-30T09:20:46;25.80;99.90
11067;DHT22;29763;50.904;5.530;2022-08-30T09:25:50;25.60;99.90
11067;DHT22;29763;50.904;5.530;2022-08-30T09:28:30;25.60;99.90
11067;DHT22;29763;50.904;5.530;2022-08-30T09:31:07;25.90;99.90
11067;DHT22;29763;50.904;5.530;2022-08-30T09:33:59;26.40;99.90
11067;DHT22;29763;50.904;5.530;2022-08-30T09:36:39;26.30;99.90
11067;DHT22;29763;50.904;5.530;2022-08-30T09:41:45;26.10;99.90
11067;DHT22;29763;50.904;5.530;2022-08-30T09:44:24;26.10;99.90
11067;DHT22;29763;50.904;5.530;2022-08-30T09:47:01;26.50;99.90
11067;DHT22;29763;50.904;5.530;2022-08-30T10:04:22;27.30;99.90
11067;DHT22;29763;50.904;5.530;2022-08-30T10:16:09;27.80;99.50
11067;DHT22;29763;50.904;5.530;2022-08-30T10:22:07;27.60;99.90
11067;DHT22;29763;50.904;5.530;2022-08-30T10:24:49;27.90;99.30
11067;DHT22;29763;50.904;5.530;2022-08-30T10:27:20;28.50;98.70
11067;DHT22;29763;50.904;5.530;2022-08-30T10:30:07;28.60;97.60
11067;DHT22;29763;50.904;5.530;2022-08-30T10:33:03;28.90;97.80
11067;DHT22;29763;50.904;5.530;2022-08-30T10:35:35;28.80;96.80
11067;DHT22;29763;50.904;5.530;2022-08-30T10:41:37;28.80;96.80
11067;DHT22;29763;50.904;5.530;2022-08-30T10:44:25;28.60;96.80
11067;DHT22;29763;50.904;5.530;2022-08-30T10:49:40;28.10;97.40
11067;DHT22;29763;50.904;5.530;2022-08-30T10:58:04;28.40;96.80
11067;DHT22;29763;50.904;5.530;2022-08-30T11:03:52;28.20;97.10
11067;DHT22;29763;50.904;5.530;2022-08-30T11:06:58;28.10;97.60
11067;DHT22;29763;50.904;5.530;2022-08-30T11:09:48;28.90;97.10
11067;DHT22;29763;50.904;5.530;2022-08-30T11:15:21;29.20;95.50
11067;DHT22;29763;50.904;5.530;2022-08-30T11:20:51;29.00;95.20
11067;DHT22;29763;50.904;5.530;2022-08-30T11:25:53;29.00;95.90
11067;DHT22;29763;50.904;5.530;2022-08-30T11:33:57;28.90;95.70
11067;DHT22;29763;50.904;5.530;2022-08-30T11:39:12;29.00;96.10
11067;DHT22;29763;50.904;5.530;2022-08-30T11:41:44;29.10;95.20
11067;DHT22;29763;50.904;5.530;2022-08-30T11:44:30;29.30;95.60
11067;DHT22;29763;50.904;5.530;2022-08-30T11:46:59;29.60;94.60
11067;DHT22;29763;50.904;5.530;2022-08-30T11:55:10;29.10;95.40
11067;DHT22;29763;50.904;5.530;2022-08-30T12:00:45;29.20;94.80
11067;DHT22;29763;50.904;5.530;2022-08-30T12:03:32;29.20;94.80
11067;DHT22;29763;50.904;5.530;2022-08-30T12:06:01;29.50;95.30
11067;DHT22;29763;50.904;5.530;2022-08-30T12:16:13;31.10;93.90
11067;DHT22;29763;50.904;5.530;2022-08-30T12:18:48;31.10;92.70
11067;DHT22;29763;50.904;5.530;2022-08-30T12:24:18;30.40;93.20
11067;DHT22;29763;50.904;5.530;2022-08-30T12:26:48;29.60;93.80
11067;DHT22;29763;50.904;5.530;2022-08-30T12:29:26;29.90;94.30
11067;DHT22;29763;50.904;5.530;2022-08-30T12:32:15;29.90;94.30
11067;DHT22;29763;50.904;5.530;2022-08-30T12:40:17;29.80;94.60
11067;DHT22;29763;50.904;5.530;2022-08-30T12:42:58;29.70;94.50
11067;DHT22;29763;50.904;5.530;2022-08-30T12:45:43;29.70;94.00
11067;DHT22;29763;50.904;5.530;2022-08-30T12:48:14;29.50;94.00
11067;DHT22;29763;50.904;5.530;2022-08-30T12:50:48;29.90;94.40
11067;DHT22;29763;50.904;5.530;2022-08-30T12:53:33;30.40;93.30
11067;DHT22;29763;50.904;5.530;2022-08-30T12:56:09;30.10;93.50
11067;DHT22;29763;50.904;5.530;2022-08-30T12:58:54;29.40;93.10
11067;DHT22;29763;50.904;5.530;2022-08-30T13:01:28;29.60;93.60
11067;DHT22;29763;50.904;5.530;2022-08-30T13:06:58;29.10;93.20
11067;DHT22;29763;50.904;5.530;2022-08-30T13:12:26;29.10;93.60
11067;DHT22;29763;50.904;5.530;2022-08-30T13:15:16;29.10;93.40
11067;DHT22;29763;50.904;5.530;2022-08-30T13:17:46;29.40;93.70
11067;DHT22;29763;50.904;5.530;2022-08-30T13:22:59;29.70;93.00
11067;DHT22;29763;50.904;5.530;2022-08-30T13:25:25;29.70;92.60
11067;DHT22;29763;50.904;5.530;2022-08-30T13:27:51;29.60;92.70
11067;DHT22;29763;50.904;5.530;2022-08-30T13:30:17;29.70;92.80
11067;DHT22;29763;50.904;5.530;2022-08-30T13:32:44;29.60;92.60
11067;DHT22;29763;50.904;5.530;2022-08-30T13:35:11;29.70;92.20
11067;DHT22;29763;50.904;5.530;2022-08-30T13:37:39;29.90;92.20
11067;DHT22;29763;50.904;5.530;2022-08-30T13:40:09;29.80;91.80
11067;DHT22;29763;50.904;5.530;2022-08-30T13:42:35;29.30;92.00
11067;DHT22;29763;50.904;5.530;2022-08-30T13:45:05;28.80;92.60
11067;DHT22;29763;50.904;5.530;2022-08-30T13:47:31;28.90;93.50
11067;DHT22;29763;50.904;5.530;2022-08-30T13:49:58;29.00;92.90
11067;DHT22;29763;50.904;5.530;2022-08-30T13:52:24;28.90;92.50
11067;DHT22;29763;50.904;5.530;2022-08-30T13:54:52;29.20;92.60
11067;DHT22;29763;50.904;5.530;2022-08-30T13:57:25;29.00;92.70
11067;DHT22;29763;50.904;5.530;2022-08-30T13:59:52;28.70;92.60
11067;DHT22;29763;50.904;5.530;2022-08-30T14:02:21;28.20;92.90
11067;DHT22;29763;50.904;5.530;2022-08-30T14:04:47;28.10;93.90
11067;DHT22;29763;50.904;5.530;2022-08-30T14:07:12;28.50;94.20
11067;DHT22;29763;50.904;5.530;2022-08-30T14:09:39;28.80;93.50
11067;DHT22;29763;50.904;5.530;2022-08-30T14:12:05;29.20;93.10
11067;DHT22;29763;50.904;5.530;2022-08-30T14:14:33;29.30;93.20
11067;DHT22;29763;50.904;5.530;2022-08-30T14:16:58;28.50;93.00
11067;DHT22;29763;50.904;5.530;2022-08-30T14:19:31;28.30;93.70
11067;DHT22;29763;50.904;5.530;2022-08-30T14:21:57;28.10;94.10
11067;DHT22;29763;50.904;5.530;2022-08-30T14:24:23;28.20;94.10
11067;DHT22;29763;50.904;5.530;2022-08-30T14:26:49;28.30;94.60
11067;DHT22;29763;50.904;5.530;2022-08-30T14:29:23;28.70;94.30
11067;DHT22;29763;50.904;5.530;2022-08-30T14:31:52;28.80;93.40
11067;DHT22;29763;50.904;5.530;2022-08-30T14:34:18;29.00;93.80
11067;DHT22;29763;50.904;5.530;2022-08-30T14:36:44;29.00;93.30
11067;DHT22;29763;50.904;5.530;2022-08-30T14:39:15;28.80;93.30
11067;DHT22;29763;50.904;5.530;2022-08-30T14:41:51;28.40;93.70
11067;DHT22;29763;50.904;5.530;2022-08-30T14:44:19;28.30;93.70
11067;DHT22;29763;50.904;5.530;2022-08-30T14:46:47;28.30;94.00
11067;DHT22;29763;50.904;5.530;2022-08-30T14:49:15;28.30;93.50
11067;DHT22;29763;50.904;5.530;2022-08-30T14:51:42;28.30;93.50
11067;DHT22;29763;50.904;5.530;2022-08-30T14:54:13;28.30;93.60
11067;DHT22;29763;50.904;5.530;2022-08-30T14:56:40;28.20;93.70
11067;DHT22;29763;50.904;5.530;2022-08-30T14:59:06;28.20;93.70
11067;DHT22;29763;50.904;5.530;2022-08-30T15:01:33;28.00;94.00
11067;DHT22;29763;50.904;5.530;2022-08-30T15:03:59;27.90;94.00
11067;DHT22;29763;50.904;5.530;2022-08-30T15:06:25;27.70;93.80
11067;DHT22;29763;50.904;5.530;2022-08-30T15:08:53;27.80;94.10
11067;DHT22;29763;50.904;5.530;2022-08-30T15:11:21;27.80;94.40
11067;DHT22;29763;50.904;5.530;2022-08-30T15:13:47;27.80;94.40
11067;DHT22;29763;50.904;5.530;2022-08-30T15:16:33;27.90;94.30
11067;DHT22;29763;50.904;5.530;2022-08-30T15:19:00;28.10;94.10
11067;DHT22;29763;50.904;5.530;2022-08-30T15:21:32;28.10;94.10
11067;DHT22;29763;50.904;5.530;2022-08-30T15:24:03;28.20;93.90
11067;DHT22;29763;50.904;5.530;2022-08-30T15:26:29;28.30;94.20
11067;DHT22;29763;50.904;5.530;2022-08-30T15:28:56;28.10;94.10
11067;DHT22;29763;50.904;5.530;2022-08-30T15:31:25;28.00;94.40
11067;DHT22;29763;50.904;5.530;2022-08-30T15:33:53;28.00;94.80
11067;DHT22;29763;50.904;5.530;2022-08-30T15:36:19;28.00;94.10
11067;DHT22;29763;50.904;5.530;2022-08-30T15:38:45;27.90;94.00
11067;DHT22;29763;50.904;5.530;2022-08-30T15:41:12;27.90;94.40
11067;DHT22;29763;50.904;5.530;2022-08-30T15:43:38;27.60;94.40
11067;DHT22;29763;50.904;5.530;2022-08-30T15:46:33;27.50;95.10
11067;DHT22;29763;50.904;5.530;2022-08-30T15:49:05;27.40;94.90
11067;DHT22;29763;50.904;5.530;2022-08-30T15:51:33;27.50;95.40
11067;DHT22;29763;50.904;5.530;2022-08-30T15:54:01;27.50;94.90
11067;DHT22;29763;50.904;5.530;2022-08-30T15:56:28;27.30;94.60
11067;DHT22;29763;50.904;5.530;2022-08-30T15:58:53;27.00;95.00
11067;DHT22;29763;50.904;5.530;2022-08-30T16:01:21;26.90;95.20
11067;DHT22;29763;50.904;5.530;2022-08-30T16:03:47;26.80;95.50
11067;DHT22;29763;50.904;5.530;2022-08-30T16:06:16;26.70;95.70
11067;DHT22;29763;50.904;5.530;2022-08-30T16:08:43;26.70;95.60
11067;DHT22;29763;50.904;5.530;2022-08-30T16:11:11;26.50;96.00
11067;DHT22;29763;50.904;5.530;2022-08-30T16:13:37;26.40;96.10
11067;DHT22;29763;50.904;5.530;2022-08-30T16:16:06;26.30;96.40
11067;DHT22;29763;50.904;5.530;2022-08-30T16:18:32;26.20;96.20
11067;DHT22;29763;50.904;5.530;2022-08-30T16:21:05;25.90;96.60
11067;DHT22;29763;50.904;5.530;2022-08-30T16:23:32;25.80;96.80
11067;DHT22;29763;50.904;5.530;2022-08-30T16:26:03;25.80;97.00
11067;DHT22;29763;50.904;5.530;2022-08-30T16:28:33;25.80;97.00
11067;DHT22;29763;50.904;5.530;2022-08-30T16:31:02;25.80;96.90
11067;DHT22;29763;50.904;5.530;2022-08-30T16:33:30;25.70;96.90
11067;DHT22;29763;50.904;5.530;2022-08-30T16:35:56;25.80;97.30
11067;DHT22;29763;50.904;5.530;2022-08-30T16:38:23;25.70;97.20
11067;DHT22;29763;50.904;5.530;2022-08-30T16:40:49;25.60;97.10
11067;DHT22;29763;50.904;5.530;2022-08-30T16:43:17;25.60;97.30
11067;DHT22;29763;50.904;5.530;2022-08-30T16:45:43;25.60;97.50
11067;DHT22;29763;50.904;5.530;2022-08-30T16:48:12;25.60;97.40
11067;DHT22;29763;50.904;5.530;2022-08-30T16:50:40;25.50;97.50
11067;DHT22;29763;50.904;5.530;2022-08-30T16:53:13;25.60;97.80
11067;DHT22;29763;50.904;5.530;2022-08-30T16:55:40;25.60;97.60
11067;DHT22;29763;50.904;5.530;2022-08-30T16:58:08;25.50;97.50
11067;DHT22;29763;50.904;5.530;2022-08-30T17:00:36;25.60;97.50
11067;DHT22;29763;50.904;5.530;2022-08-30T17:03:04;25.60;97.50
11067;DHT22;29763;50.904;5.530;2022-08-30T17:05:34;25.50;97.40
11067;DHT22;29763;50.904;5.530;2022-08-30T17:08:00;25.40;97.40
11067;DHT22;29763;50.904;5.530;2022-08-30T17:10:26;25.40;97.60
11067;DHT22;29763;50.904;5.530;2022-08-30T17:12:52;25.40;97.80
11067;DHT22;29763;50.904;5.530;2022-08-30T17:15:25;25.30;97.60
11067;DHT22;29763;50.904;5.530;2022-08-30T17:17:53;25.30;98.00
11067;DHT22;29763;50.904;5.530;2022-08-30T17:20:19;25.30;98.00
11067;DHT22;29763;50.904;5.530;2022-08-30T17:22:46;25.40;98.00
11067;DHT22;29763;50.904;5.530;2022-08-30T17:25:12;25.30;98.20
11067;DHT22;29763;50.904;5.530;2022-08-30T17:27:41;25.20;98.20
11067;DHT22;29763;50.904;5.530;2022-08-30T17:30:08;25.20;98.40
11067;DHT22;29763;50.904;5.530;2022-08-30T17:32:36;25.10;98.40